| time (UTC) | temp F | wind direction | speed knots | gust knots | rain 1hr in | rain 24hr in | rain mn in | humidity % | barometer mb |
| 20260506151017 | 54 | 148 | 1.7 | 4.3 | 0.00 | 0.00 | 0.00 | 67 | 1018.8 |
| 20260506150517 | 54 | 164 | 0.9 | 4.3 | 0.00 | 0.00 | 0.00 | 68 | 1018.8 |
| 20260506150057 | 53 | 133 | 2.6 | 5.2 | 0.00 | 0.00 | 0.00 | 68 | 1018.7 |
| 20260506145517 | 53 | 138 | 2.6 | 5.2 | 0.00 | 0.00 | 0.00 | 69 | 1018.7 |
| 20260506145037 | 53 | 137 | 2.6 | 7.0 | 0.00 | 0.00 | 0.00 | 70 | 1018.7 |
| 20260506144517 | 52 | 144 | 1.7 | 5.2 | 0.00 | 0.00 | 0.00 | 71 | 1018.5 |
| 20260506144037 | 52 | 146 | 1.7 | 4.3 | 0.00 | 0.00 | 0.00 | 71 | 1018.5 |
| 20260506143518 | 52 | 139 | 2.6 | 5.2 | 0.00 | 0.00 | 0.00 | 72 | 1018.4 |
| 20260506143020 | 51 | 140 | 2.6 | 7.0 | 0.00 | 0.00 | 0.00 | 74 | 1018.4 |
| 20260506142521 | 51 | 138 | 2.6 | 7.0 | 0.00 | 0.00 | 0.00 | 74 | 1018.4 |
| 20260506142018 | 51 | 137 | 2.6 | 6.1 | 0.00 | 0.00 | 0.00 | 75 | 1018.3 |
| 20260506141518 | 51 | 143 | 2.6 | 6.1 | 0.00 | 0.00 | 0.00 | 75 | 1018.3 |
| 20260506141018 | 51 | 146 | 2.6 | 4.3 | 0.00 | 0.00 | 0.00 | 76 | 1018.1 |
| 20260506140517 | 51 | 147 | 2.6 | 6.1 | 0.00 | 0.00 | 0.00 | 76 | 1018.0 |
| 20260506140018 | 50 | 146 | 2.6 | 6.1 | 0.00 | 0.00 | 0.00 | 77 | 1018.0 |
| 20260506135518 | 50 | 147 | 2.6 | 5.2 | 0.00 | 0.00 | 0.00 | 77 | 1018.0 |
| 20260506135018 | 50 | 147 | 2.6 | 6.1 | 0.00 | 0.00 | 0.00 | 77 | 1017.9 |
| 20260506134518 | 50 | 150 | 2.6 | 4.3 | 0.00 | 0.00 | 0.00 | 77 | 1017.8 |
| 20260506134018 | 50 | 146 | 2.6 | 5.2 | 0.00 | 0.00 | 0.00 | 77 | 1017.8 |
| 20260506133518 | 50 | 151 | 2.6 | 4.3 | 0.00 | 0.00 | 0.00 | 77 | 1017.8 |
| 20260506133018 | 50 | 152 | 2.6 | 6.1 | 0.00 | 0.00 | 0.00 | 77 | 1017.8 |
| 20260506132518 | 51 | 155 | 2.6 | 5.2 | 0.00 | 0.00 | 0.00 | 76 | 1017.8 |
| 20260506132019 | 51 | 166 | 2.6 | 5.2 | 0.00 | 0.00 | 0.00 | 75 | 1017.7 |
| 20260506131539 | 51 | 162 | 2.6 | 3.5 | 0.00 | 0.00 | 0.00 | 75 | 1017.7 |
| 20260506131019 | 51 | 140 | 2.6 | 7.0 | 0.00 | 0.00 | 0.00 | 75 | 1017.6 |
| 20260506130519 | 51 | 139 | 3.5 | 7.8 | 0.00 | 0.00 | 0.00 | 74 | 1017.6 |
| 20260506130019 | 52 | 138 | 3.5 | 6.1 | 0.00 | 0.00 | 0.00 | 73 | 1017.5 |
| 20260506125519 | 53 | 135 | 3.5 | 7.8 | 0.00 | 0.00 | 0.00 | 71 | 1017.5 |
| 20260506125019 | 53 | 133 | 3.5 | 7.8 | 0.00 | 0.00 | 0.00 | 70 | 1017.5 |
| 20260506124519 | 53 | 139 | 3.5 | 7.0 | 0.00 | 0.00 | 0.00 | 70 | 1017.5 |
| 20260506124039 | 53 | 133 | 3.5 | 5.2 | 0.00 | 0.00 | 0.00 | 70 | 1017.4 |
| 20260506123519 | 53 | 134 | 3.5 | 7.8 | 0.00 | 0.00 | 0.00 | 70 | 1017.4 |
| 20260506123019 | 53 | 136 | 3.5 | 10.4 | 0.00 | 0.00 | 0.00 | 70 | 1017.4 |
| 20260506122519 | 52 | 133 | 3.5 | 7.0 | 0.00 | 0.00 | 0.00 | 71 | 1017.4 |
| 20260506122017 | 52 | 131 | 3.5 | 7.8 | 0.00 | 0.00 | 0.00 | 71 | 1017.4 |
| 20260506121517 | 52 | 141 | 2.6 | 6.1 | 0.00 | 0.00 | 0.00 | 71 | 1017.4 |
| 20260506121017 | 52 | 138 | 2.6 | 6.1 | 0.00 | 0.00 | 0.00 | 71 | 1017.4 |
| 20260506120516 | 52 | 138 | 3.5 | 7.0 | 0.00 | 0.00 | 0.00 | 71 | 1017.4 |
| 20260506120020 | 52 | 135 | 2.6 | 6.1 | 0.00 | 0.00 | 0.00 | 72 | 1017.4 |
| 20260506115519 | 52 | 141 | 2.6 | 5.2 | 0.00 | 0.00 | 0.00 | 71 | 1017.4 |
| 20260506115020 | 52 | 141 | 2.6 | 5.2 | 0.00 | 0.00 | 0.00 | 71 | 1017.3 |
| 20260506114540 | 52 | 140 | 2.6 | 5.2 | 0.00 | 0.00 | 0.00 | 71 | 1017.3 |
| 20260506114041 | 53 | 140 | 3.5 | 6.1 | 0.00 | 0.00 | 0.00 | 72 | 1017.1 |
| 20260506113517 | 53 | 136 | 3.5 | 7.0 | 0.00 | 0.00 | 0.00 | 72 | 1017.0 |
| 20260506113017 | 53 | 134 | 3.5 | 8.7 | 0.00 | 0.00 | 0.00 | 72 | 1017.0 |
| 20260506112517 | 53 | 134 | 3.5 | 7.8 | 0.00 | 0.00 | 0.00 | 72 | 1017.0 |
| 20260506112037 | 53 | 136 | 3.5 | 7.0 | 0.00 | 0.00 | 0.00 | 72 | 1017.0 |
| 20260506111537 | 53 | 136 | 3.5 | 7.0 | 0.00 | 0.00 | 0.00 | 73 | 1017.0 |
| 20260506111017 | 53 | 138 | 3.5 | 6.1 | 0.00 | 0.00 | 0.00 | 73 | 1017.0 |
| 20260506110517 | 53 | 139 | 2.6 | 5.2 | 0.00 | 0.00 | 0.00 | 74 | 1017.0 |
| 20260506110018 | 53 | 147 | 2.6 | 5.2 | 0.00 | 0.00 | 0.00 | 74 | 1017.0 |
| 20260506105518 | 53 | 141 | 2.6 | 7.0 | 0.00 | 0.00 | 0.00 | 73 | 1017.0 |
| 20260506105021 | 53 | 144 | 2.6 | 4.3 | 0.00 | 0.00 | 0.00 | 72 | 1016.9 |
| 20260506104518 | 54 | 139 | 2.6 | 6.1 | 0.00 | 0.00 | 0.00 | 71 | 1016.9 |
| 20260506104018 | 54 | 137 | 3.5 | 7.0 | 0.00 | 0.00 | 0.00 | 70 | 1016.9 |
| 20260506103518 | 54 | 135 | 3.5 | 6.1 | 0.00 | 0.00 | 0.00 | 68 | 1016.9 |
| 20260506103018 | 54 | 131 | 3.5 | 7.8 | 0.00 | 0.00 | 0.00 | 66 | 1016.8 |
| 20260506102518 | 55 | 139 | 2.6 | 7.8 | 0.00 | 0.00 | 0.00 | 64 | 1016.8 |
| 20260506102019 | 55 | 133 | 3.5 | 7.0 | 0.00 | 0.00 | 0.00 | 62 | 1016.8 |
| 20260506101518 | 55 | 131 | 3.5 | 6.1 | 0.00 | 0.00 | 0.00 | 61 | 1016.8 |
| 20260506101018 | 55 | 129 | 3.5 | 7.8 | 0.00 | 0.00 | 0.00 | 60 | 1016.8 |
| 20260506100518 | 55 | 131 | 3.5 | 6.1 | 0.00 | 0.00 | 0.00 | 60 | 1016.8 |
| 20260506100018 | 56 | 129 | 3.5 | 5.2 | 0.00 | 0.00 | 0.00 | 60 | 1016.8 |
| 20260506095538 | 56 | 130 | 2.6 | 6.1 | 0.00 | 0.00 | 0.00 | 60 | 1016.9 |
| 20260506095018 | 56 | 131 | 2.6 | 5.2 | 0.00 | 0.00 | 0.00 | 60 | 1016.9 |
| 20260506094519 | 56 | 126 | 2.6 | 5.2 | 0.00 | 0.00 | 0.00 | 60 | 1016.8 |
| 20260506094018 | 56 | 134 | 2.6 | 5.2 | 0.00 | 0.00 | 0.00 | 62 | 1016.8 |
| 20260506093539 | 56 | 133 | 3.5 | 6.1 | 0.00 | 0.00 | 0.00 | 62 | 1016.8 |
| 20260506093019 | 56 | 139 | 2.6 | 5.2 | 0.00 | 0.00 | 0.00 | 60 | 1016.8 |
| 20260506092519 | 56 | 124 | 3.5 | 6.1 | 0.00 | 0.00 | 0.00 | 59 | 1016.7 |
| 20260506092019 | 57 | 128 | 2.6 | 4.3 | 0.00 | 0.00 | 0.00 | 60 | 1016.7 |
| 20260506091519 | 57 | 132 | 2.6 | 4.3 | 0.00 | 0.00 | 0.00 | 59 | 1016.8 |
| 20260506091019 | 57 | 127 | 2.6 | 4.3 | 0.00 | 0.00 | 0.00 | 59 | 1016.7 |
| 20260506090519 | 57 | 124 | 2.6 | 5.2 | 0.00 | 0.00 | 0.00 | 57 | 1016.7 |
| 20260506090039 | 58 | 132 | 2.6 | 6.1 | 0.00 | 0.00 | 0.00 | 55 | 1016.8 |
| 20260506085519 | 58 | 128 | 1.7 | 3.5 | 0.00 | 0.00 | 0.00 | 53 | 1016.7 |
| 20260506085019 | 58 | 122 | 2.6 | 4.3 | 0.00 | 0.00 | 0.00 | 51 | 1016.8 |
| 20260506084519 | 58 | 121 | 2.6 | 6.1 | 0.00 | 0.00 | 0.00 | 51 | 1016.8 |
| 20260506084057 | 58 | 124 | 1.7 | 4.3 | 0.00 | 0.00 | 0.00 | 51 | 1016.7 |
| 20260506083517 | 58 | 121 | 1.7 | 4.3 | 0.00 | 0.00 | 0.00 | 51 | 1016.8 |
| 20260506083017 | 58 | 113 | 1.7 | 5.2 | 0.00 | 0.00 | 0.00 | 52 | 1016.7 |
| 20260506082516 | 58 | 115 | 1.7 | 4.3 | 0.00 | 0.00 | 0.00 | 51 | 1016.7 |
| 20260506082020 | 58 | 120 | 1.7 | 4.3 | 0.00 | 0.00 | 0.00 | 51 | 1016.8 |
| 20260506081600 | 58 | 126 | 1.7 | 2.6 | 0.00 | 0.00 | 0.00 | 51 | 1016.8 |
| 20260506081020 | 58 | 136 | 1.7 | 4.3 | 0.00 | 0.00 | 0.00 | 50 | 1016.8 |
| 20260506080520 | 58 | 131 | 1.7 | 4.3 | 0.00 | 0.00 | 0.00 | 50 | 1016.7 |
| 20260506073518 | 57 | 107 | 0.9 | 2.6 | 0.00 | 0.00 | 0.00 | 51 | 1016.5 |
| 20260506073017 | 57 | 115 | 0.9 | 1.7 | 0.00 | 0.00 | 0.00 | 51 | 1016.4 |
| 20260506072537 | 58 | 133 | 0.9 | 1.7 | 0.00 | 0.00 | 0.00 | 50 | 1016.3 |
| 20260506072017 | 58 | 88 | 0.9 | 0.9 | 0.00 | 0.00 | 0.00 | 48 | 1016.3 |
| 20260506071517 | 59 | 113 | 0.9 | 1.7 | 0.00 | 0.00 | 0.00 | 47 | 1016.3 |
| 20260506071021 | 59 | 88 | 0.9 | 1.7 | 0.00 | 0.00 | 0.00 | 45 | 1016.2 |
| 20260506070519 | 59 | 82 | 0.9 | 1.7 | 0.00 | 0.00 | 0.00 | 44 | 1016.2 |
| 20260506062019 | 61 | 112 | 0.9 | 1.7 | 0.00 | 0.00 | 0.00 | 40 | 1015.7 |
| 20260506061517 | 60 | 79 | 0.9 | 1.7 | 0.00 | 0.00 | 0.00 | 40 | 1015.6 |
| 20260506061017 | 60 | 81 | 0.9 | 1.7 | 0.00 | 0.00 | 0.00 | 40 | 1015.5 |
| 20260506060536 | 60 | 89 | 0.9 | 1.7 | 0.00 | 0.00 | 0.00 | 41 | 1015.4 |
| 20260506051017 | 64 | 272 | 1.7 | 4.3 | 0.00 | 0.00 | 0.00 | 37 | 1015.1 |
| 20260506050517 | 64 | 257 | 1.7 | 7.0 | 0.00 | 0.00 | 0.00 | 39 | 1015.1 |
| 20260506045037 | 64 | 259 | 1.7 | 5.2 | 0.00 | 0.00 | 0.00 | 39 | 1015.0 |
| 20260506044518 | 63 | 134 | 1.7 | 4.3 | 0.00 | 0.00 | 0.00 | 39 | 1015.0 |
| 20260506044021 | 63 | 131 | 0.9 | 2.6 | 0.00 | 0.00 | 0.00 | 39 | 1015.0 |
| 20260506043521 | 63 | 131 | 0.9 | 2.6 | 0.00 | 0.00 | 0.00 | 42 | 1015.0 |
| 20260506043018 | 64 | 117 | 0.0 | 1.7 | 0.00 | 0.00 | 0.00 | 42 | 1015.0 |
| 20260506042520 | 64 | 189 | 0.0 | 1.7 | 0.00 | 0.00 | 0.00 | 41 | 1015.0 |
| 20260506042018 | 64 | 188 | 0.9 | 2.6 | 0.00 | 0.00 | 0.00 | 42 | 1014.9 |
| 20260506041518 | 64 | 178 | 0.9 | 2.6 | 0.00 | 0.00 | 0.00 | 44 | 1014.9 |
| 20260506041018 | 64 | 215 | 1.7 | 4.3 | 0.00 | 0.00 | 0.00 | 45 | 1014.9 |
| 20260506040518 | 64 | 220 | 0.9 | 3.5 | 0.00 | 0.00 | 0.00 | 47 | 1014.8 |
| 20260506040018 | 64 | 214 | 0.9 | 3.5 | 0.00 | 0.00 | 0.00 | 48 | 1014.8 |
| 20260506035518 | 65 | 224 | 1.7 | 4.3 | 0.00 | 0.00 | 0.00 | 48 | 1014.7 |
| 20260506035018 | 65 | 235 | 0.0 | 1.7 | 0.00 | 0.00 | 0.00 | 50 | 1014.7 |
| 20260506034518 | 65 | 139 | 0.0 | 1.7 | 0.00 | 0.00 | 0.00 | 49 | 1014.5 |
| 20260506034018 | 66 | 251 | 0.9 | 1.7 | 0.00 | 0.00 | 0.00 | 49 | 1014.5 |
| 20260506033518 | 66 | 254 | 1.7 | 4.3 | 0.00 | 0.00 | 0.00 | 49 | 1014.4 |
| 20260506033018 | 66 | 249 | 1.7 | 3.5 | 0.00 | 0.00 | 0.00 | 49 | 1014.4 |
| 20260506032538 | 67 | 269 | 1.7 | 4.3 | 0.00 | 0.00 | 0.00 | 48 | 1014.4 |
| 20260506032018 | 67 | 266 | 2.6 | 5.2 | 0.00 | 0.00 | 0.00 | 48 | 1014.4 |
| 20260506031519 | 67 | 267 | 2.6 | 5.2 | 0.00 | 0.00 | 0.00 | 47 | 1014.3 |
| 20260506031019 | 68 | 277 | 2.6 | 5.2 | 0.00 | 0.00 | 0.00 | 47 | 1014.2 |
| 20260506030519 | 68 | 271 | 2.6 | 5.2 | 0.00 | 0.00 | 0.00 | 46 | 1014.2 |
| 20260506030039 | 68 | 275 | 2.6 | 5.2 | 0.00 | 0.00 | 0.00 | 46 | 1014.2 |
| 20260506025519 | 68 | 272 | 2.6 | 7.0 | 0.00 | 0.00 | 0.00 | 46 | 1014.1 |
| 20260506025039 | 68 | 275 | 2.6 | 6.1 | 0.00 | 0.00 | 0.00 | 45 | 1014.0 |
| 20260506024519 | 69 | 292 | 2.6 | 6.1 | 0.00 | 0.00 | 0.00 | 45 | 1014.0 |
| 20260506024019 | 69 | 281 | 2.6 | 5.2 | 0.00 | 0.00 | 0.00 | 44 | 1014.0 |
| 20260506023536 | 69 | 276 | 2.6 | 5.2 | 0.00 | 0.00 | 0.00 | 44 | 1013.9 |
| 20260506023017 | 70 | 272 | 3.5 | 6.1 | 0.00 | 0.00 | 0.00 | 43 | 1013.9 |
| 20260506022557 | 70 | 275 | 4.3 | 11.3 | 0.00 | 0.00 | 0.00 | 42 | 1013.8 |
| 20260506022017 | 69 | 269 | 3.5 | 7.8 | 0.00 | 0.00 | 0.00 | 42 | 1013.8 |
| 20260506021517 | 69 | 273 | 4.3 | 10.4 | 0.00 | 0.00 | 0.00 | 43 | 1013.8 |
| 20260506021019 | 69 | 262 | 2.6 | 9.6 | 0.00 | 0.00 | 0.00 | 42 | 1013.8 |
| 20260506020520 | 69 | 266 | 3.5 | 7.8 | 0.00 | 0.00 | 0.00 | 42 | 1013.8 |
| 20260506020020 | 70 | 262 | 3.5 | 7.0 | 0.00 | 0.00 | 0.00 | 43 | 1013.8 |
| 20260506015540 | 70 | 264 | 4.3 | 7.8 | 0.00 | 0.00 | 0.00 | 42 | 1013.8 |
| 20260506015020 | 70 | 259 | 3.5 | 7.8 | 0.00 | 0.00 | 0.00 | 42 | 1013.8 |
| 20260506014517 | 70 | 263 | 4.3 | 8.7 | 0.00 | 0.00 | 0.00 | 43 | 1013.7 |
| 20260506014017 | 70 | 264 | 5.2 | 9.6 | 0.00 | 0.00 | 0.00 | 43 | 1013.7 |
| 20260506013537 | 71 | 262 | 6.1 | 10.4 | 0.00 | 0.00 | 0.00 | 43 | 1013.7 |
| 20260506013017 | 71 | 262 | 6.1 | 11.3 | 0.00 | 0.00 | 0.00 | 43 | 1013.6 |
| 20260506012537 | 71 | 271 | 4.3 | 9.6 | 0.00 | 0.00 | 0.00 | 42 | 1013.6 |
| 20260506012017 | 71 | 260 | 4.3 | 8.7 | 0.00 | 0.00 | 0.00 | 42 | 1013.6 |
| 20260506011537 | 70 | 268 | 4.3 | 8.7 | 0.00 | 0.00 | 0.00 | 43 | 1013.6 |
| 20260506011018 | 71 | 262 | 5.2 | 12.2 | 0.00 | 0.00 | 0.00 | 42 | 1013.6 |
| 20260506010518 | 72 | 272 | 5.2 | 7.8 | 0.00 | 0.00 | 0.00 | 41 | 1013.5 |
| 20260506010020 | 72 | 270 | 3.5 | 9.6 | 0.00 | 0.00 | 0.00 | 40 | 1013.5 |
| 20260506005517 | 72 | 268 | 3.5 | 8.7 | 0.00 | 0.00 | 0.00 | 39 | 1013.4 |
| 20260506005018 | 72 | 281 | 3.5 | 7.0 | 0.00 | 0.00 | 0.00 | 40 | 1013.4 |
| 20260506004518 | 73 | 270 | 5.2 | 11.3 | 0.00 | 0.00 | 0.00 | 39 | 1013.3 |
| 20260506004018 | 74 | 274 | 4.3 | 9.6 | 0.00 | 0.00 | 0.00 | 37 | 1013.3 |
| 20260506003518 | 75 | 312 | 3.5 | 7.0 | 0.00 | 0.00 | 0.00 | 35 | 1013.2 |
| 20260506003018 | 75 | 3 | 3.5 | 8.7 | 0.00 | 0.00 | 0.00 | 35 | 1013.1 |
| 20260506002518 | 74 | 354 | 2.6 | 6.1 | 0.00 | 0.00 | 0.00 | 35 | 1013.1 |
| 20260506002018 | 74 | 352 | 2.6 | 5.2 | 0.00 | 0.00 | 0.00 | 35 | 1013.1 |
| 20260506001518 | 73 | 343 | 1.7 | 5.2 | 0.00 | 0.00 | 0.00 | 35 | 1013.0 |
| 20260506001059 | 73 | 307 | 2.6 | 7.8 | 0.00 | 0.00 | 0.00 | 35 | 1013.0 |
| 20260506000519 | 73 | 321 | 2.6 | 9.6 | 0.00 | 0.00 | 0.00 | 35 | 1013.0 |
| 20260506000039 | 74 | 284 | 2.6 | 7.8 | 0.00 | 0.00 | 0.00 | 34 | 1013.0 |
| 20260505235539 | 75 | 325 | 2.6 | 6.1 | 0.00 | 0.00 | 0.00 | 34 | 1013.0 |
| 20260505235018 | 76 | 328 | 3.5 | 7.8 | 0.00 | 0.00 | 0.00 | 33 | 1012.9 |
| 20260505234536 | 77 | 316 | 3.5 | 10.4 | 0.00 | 0.00 | 0.00 | 32 | 1012.9 |
| 20260505234019 | 77 | 352 | 2.6 | 7.8 | 0.00 | 0.00 | 0.00 | 32 | 1012.9 |
| 20260505233519 | 77 | 340 | 2.6 | 7.0 | 0.00 | 0.00 | 0.00 | 32 | 1012.9 |
| 20260505233039 | 77 | 325 | 2.6 | 6.1 | 0.00 | 0.00 | 0.00 | 32 | 1012.9 |
| 20260505232519 | 77 | 14 | 2.6 | 5.2 | 0.00 | 0.00 | 0.00 | 32 | 1012.9 |
| 20260505232019 | 76 | 348 | 2.6 | 8.7 | 0.00 | 0.00 | 0.00 | 32 | 1012.9 |
| 20260505231619 | 76 | 328 | 3.5 | 8.7 | 0.00 | 0.00 | 0.00 | 32 | 1012.9 |
| 20260505231019 | 76 | 2 | 2.6 | 7.0 | 0.00 | 0.00 | 0.00 | 32 | 1013.0 |
| 20260505230519 | 77 | 326 | 2.6 | 7.8 | 0.00 | 0.00 | 0.00 | 32 | 1013.0 |
| 20260505230019 | 77 | 5 | 3.5 | 8.7 | 0.00 | 0.00 | 0.00 | 32 | 1012.9 |
| 20260505225537 | 77 | 11 | 3.5 | 7.8 | 0.00 | 0.00 | 0.00 | 32 | 1013.0 |
| 20260505225017 | 77 | 359 | 2.6 | 6.1 | 0.00 | 0.00 | 0.00 | 32 | 1013.0 |
| 20260505224516 | 77 | 358 | 2.6 | 9.6 | 0.00 | 0.00 | 0.00 | 32 | 1013.1 |
| 20260505224016 | 76 | 353 | 3.5 | 7.0 | 0.00 | 0.00 | 0.00 | 32 | 1013.0 |
| 20260505223517 | 76 | 346 | 4.3 | 9.6 | 0.00 | 0.00 | 0.00 | 33 | 1013.0 |
| 20260505223017 | 76 | 2 | 2.6 | 7.0 | 0.00 | 0.00 | 0.00 | 32 | 1013.1 |
| 20260505222537 | 76 | 14 | 2.6 | 7.0 | 0.00 | 0.00 | 0.00 | 32 | 1013.2 |
| 20260505222020 | 77 | 356 | 3.5 | 8.7 | 0.00 | 0.00 | 0.00 | 32 | 1013.1 |
| 20260505221520 | 77 | 359 | 2.6 | 9.6 | 0.00 | 0.00 | 0.00 | 32 | 1013.1 |
| 20260505221020 | 76 | 328 | 2.6 | 7.8 | 0.00 | 0.00 | 0.00 | 32 | 1013.1 |
| 20260505220521 | 76 | 327 | 2.6 | 5.2 | 0.00 | 0.00 | 0.00 | 33 | 1013.2 |
| 20260505220020 | 76 | 357 | 3.5 | 8.7 | 0.00 | 0.00 | 0.00 | 32 | 1013.2 |
| 20260505215517 | 76 | 310 | 1.7 | 4.3 | 0.00 | 0.00 | 0.00 | 32 | 1013.2 |
| 20260505215018 | 76 | 11 | 2.6 | 7.8 | 0.00 | 0.00 | 0.00 | 32 | 1013.3 |
| 20260505214518 | 76 | 315 | 2.6 | 7.0 | 0.00 | 0.00 | 0.00 | 32 | 1013.3 |
| 20260505214018 | 76 | 21 | 2.6 | 7.8 | 0.00 | 0.00 | 0.00 | 32 | 1013.3 |
| 20260505213518 | 76 | 355 | 3.5 | 7.0 | 0.00 | 0.00 | 0.00 | 32 | 1013.3 |
| 20260505213018 | 75 | 345 | 1.7 | 5.2 | 0.00 | 0.00 | 0.00 | 33 | 1013.4 |
| 20260505212518 | 75 | 315 | 1.7 | 6.1 | 0.00 | 0.00 | 0.00 | 33 | 1013.4 |
| 20260505212018 | 75 | 339 | 2.6 | 7.8 | 0.00 | 0.00 | 0.00 | 33 | 1013.5 |
| 20260505211518 | 75 | 3 | 3.5 | 7.8 | 0.00 | 0.00 | 0.00 | 33 | 1013.5 |
| 20260505211018 | 75 | 23 | 3.5 | 7.8 | 0.00 | 0.00 | 0.00 | 33 | 1013.4 |
| 20260505210517 | 74 | 348 | 3.5 | 7.0 | 0.00 | 0.00 | 0.00 | 34 | 1013.4 |
| 20260505210018 | 75 | 279 | 4.3 | 10.4 | 0.00 | 0.00 | 0.00 | 33 | 1013.4 |
| 20260505205518 | 75 | 0 | 2.6 | 7.8 | 0.00 | 0.00 | 0.00 | 34 | 1013.4 |
| 20260505205038 | 75 | 12 | 2.6 | 7.0 | 0.00 | 0.00 | 0.00 | 34 | 1013.4 |
| 20260505204518 | 76 | 1 | 2.6 | 6.1 | 0.00 | 0.00 | 0.00 | 33 | 1013.5 |
| 20260505204018 | 75 | 1 | 2.6 | 7.0 | 0.00 | 0.00 | 0.00 | 34 | 1013.4 |
| 20260505203519 | 74 | 350 | 1.7 | 4.3 | 0.00 | 0.00 | 0.00 | 35 | 1013.4 |
| 20260505203019 | 75 | 298 | 3.5 | 6.1 | 0.00 | 0.00 | 0.00 | 34 | 1013.4 |
| 20260505202518 | 75 | 336 | 2.6 | 7.0 | 0.00 | 0.00 | 0.00 | 34 | 1013.5 |
| 20260505202019 | 74 | 35 | 1.7 | 6.1 | 0.00 | 0.00 | 0.00 | 35 | 1013.5 |
| 20260505201519 | 74 | 2 | 3.5 | 7.0 | 0.00 | 0.00 | 0.00 | 35 | 1013.6 |
| 20260505201019 | 74 | 314 | 1.7 | 7.0 | 0.00 | 0.00 | 0.00 | 36 | 1013.6 |
| 20260505200539 | 74 | 356 | 2.6 | 7.0 | 0.00 | 0.00 | 0.00 | 35 | 1013.7 |
| 20260505200019 | 74 | 360 | 2.6 | 7.8 | 0.00 | 0.00 | 0.00 | 35 | 1013.7 |
| 20260505195519 | 73 | 327 | 1.7 | 5.2 | 0.00 | 0.00 | 0.00 | 37 | 1013.7 |
| 20260505195019 | 73 | 346 | 2.6 | 7.0 | 0.00 | 0.00 | 0.00 | 37 | 1013.7 |
| 20260505194519 | 73 | 354 | 2.6 | 6.1 | 0.00 | 0.00 | 0.00 | 38 | 1013.7 |
| 20260505194019 | 72 | 340 | 2.6 | 8.7 | 0.00 | 0.00 | 0.00 | 38 | 1013.7 |
| 20260505193519 | 72 | 340 | 3.5 | 9.6 | 0.00 | 0.00 | 0.00 | 38 | 1013.7 |
| 20260505193019 | 72 | 286 | 2.6 | 7.0 | 0.00 | 0.00 | 0.00 | 38 | 1013.7 |
| 20260505192519 | 72 | 8 | 2.6 | 7.8 | 0.00 | 0.00 | 0.00 | 39 | 1013.8 |
| 20260505192016 | 72 | 6 | 2.6 | 7.8 | 0.00 | 0.00 | 0.00 | 38 | 1013.8 |
| 20260505191516 | 72 | 355 | 2.6 | 8.7 | 0.00 | 0.00 | 0.00 | 38 | 1013.8 |
| 20260505191017 | 72 | 2 | 2.6 | 7.8 | 0.00 | 0.00 | 0.00 | 39 | 1013.8 |
| 20260505190557 | 71 | 316 | 1.7 | 6.1 | 0.00 | 0.00 | 0.00 | 40 | 1013.8 |
| 20260505190117 | 71 | 314 | 3.5 | 7.8 | 0.00 | 0.00 | 0.00 | 40 | 1013.8 |
| 20260505185517 | 71 | 340 | 2.6 | 7.0 | 0.00 | 0.00 | 0.00 | 40 | 1013.8 |
| 20260505185037 | 71 | 300 | 2.6 | 5.2 | 0.00 | 0.00 | 0.00 | 40 | 1013.9 |
| 20260505184517 | 71 | 355 | 1.7 | 5.2 | 0.00 | 0.00 | 0.00 | 40 | 1013.9 |
| 20260505184019 | 70 | 327 | 1.7 | 5.2 | 0.00 | 0.00 | 0.00 | 40 | 1013.9 |
| 20260505183520 | 71 | 350 | 1.7 | 7.0 | 0.00 | 0.00 | 0.00 | 39 | 1013.9 |
| 20260505183020 | 71 | 355 | 1.7 | 5.2 | 0.00 | 0.00 | 0.00 | 39 | 1013.8 |
| 20260505182517 | 70 | 356 | 1.7 | 6.1 | 0.00 | 0.00 | 0.00 | 39 | 1013.8 |
| 20260505182020 | 70 | 291 | 1.7 | 7.0 | 0.00 | 0.00 | 0.00 | 39 | 1013.8 |
| 20260505181517 | 69 | 273 | 2.6 | 7.0 | 0.00 | 0.00 | 0.00 | 39 | 1013.8 |
| 20260505181018 | 69 | 326 | 1.7 | 5.2 | 0.00 | 0.00 | 0.00 | 39 | 1013.8 |
| 20260505180517 | 68 | 107 | 0.9 | 3.5 | 0.00 | 0.00 | 0.00 | 41 | 1013.8 |
| 20260505180017 | 68 | 345 | 2.6 | 5.2 | 0.00 | 0.00 | 0.00 | 41 | 1013.8 |
| 20260505175518 | 69 | 8 | 1.7 | 5.2 | 0.00 | 0.00 | 0.00 | 41 | 1013.9 |
| 20260505175018 | 68 | 294 | 1.7 | 6.1 | 0.00 | 0.00 | 0.00 | 41 | 1013.8 |
| 20260505174537 | 67 | 217 | 0.9 | 3.5 | 0.00 | 0.00 | 0.00 | 41 | 1013.8 |
| 20260505174018 | 67 | 320 | 1.7 | 5.2 | 0.00 | 0.00 | 0.00 | 42 | 1013.8 |
| 20260505173518 | 66 | 293 | 1.7 | 4.3 | 0.00 | 0.00 | 0.00 | 43 | 1013.7 |
| 20260505173018 | 66 | 349 | 1.7 | 2.6 | 0.00 | 0.00 | 0.00 | 43 | 1013.8 |
| 20260505172518 | 65 | 103 | 0.9 | 3.5 | 0.00 | 0.00 | 0.00 | 43 | 1013.8 |
| 20260505172018 | 64 | 7 | 0.9 | 4.3 | 0.00 | 0.00 | 0.00 | 44 | 1013.7 |
| 20260505171518 | 63 | 295 | 1.7 | 3.5 | 0.00 | 0.00 | 0.00 | 45 | 1013.7 |
| 20260505171018 | 63 | 277 | 2.6 | 6.1 | 0.00 | 0.00 | 0.00 | 46 | 1013.7 |
| 20260505170518 | 64 | 271 | 2.6 | 6.1 | 0.00 | 0.00 | 0.00 | 45 | 1013.8 |
| 20260505170018 | 63 | 290 | 1.7 | 5.2 | 0.00 | 0.00 | 0.00 | 45 | 1013.8 |
| 20260505165519 | 63 | 284 | 1.7 | 5.2 | 0.00 | 0.00 | 0.00 | 45 | 1013.8 |
| 20260505165019 | 62 | 316 | 1.7 | 2.6 | 0.00 | 0.00 | 0.00 | 47 | 1013.8 |
| 20260505164519 | 62 | 269 | 2.6 | 5.2 | 0.00 | 0.00 | 0.00 | 48 | 1013.8 |
| 20260505164019 | 61 | 292 | 1.7 | 3.5 | 0.00 | 0.00 | 0.00 | 48 | 1013.9 |
| 20260505163700 | 61 | 274 | 1.7 | 4.3 | 0.00 | 0.00 | 0.00 | 48 | 1013.8 |
| 20260505163019 | 60 | 304 | 1.7 | 6.1 | 0.00 | 0.00 | 0.00 | 48 | 1013.8 |
| 20260505162519 | 60 | 268 | 1.7 | 5.2 | 0.00 | 0.00 | 0.00 | 50 | 1013.8 |
| 20260505162016 | 59 | 259 | 0.9 | 4.3 | 0.00 | 0.00 | 0.00 | 51 | 1013.8 |
| 20260505161516 | 59 | 286 | 1.7 | 3.5 | 0.00 | 0.00 | 0.00 | 52 | 1013.8 |
| 20260505161019 | 59 | 277 | 0.9 | 3.5 | 0.00 | 0.00 | 0.00 | 52 | 1013.7 |
| 20260505160519 | 58 | 271 | 0.9 | 5.2 | 0.00 | 0.00 | 0.00 | 54 | 1013.8 |
| 20260505153016 | 53 | 188 | 0.9 | 3.5 | 0.00 | 0.00 | 0.00 | 64 | 1013.7 |
| 20260505152519 | 52 | 193 | 0.9 | 1.7 | 0.00 | 0.00 | 0.00 | 65 | 1013.7 |
| 20260505152017 | 53 | 207 | 0.0 | 0.9 | 0.00 | 0.00 | 0.00 | 65 | 1013.7 |
| 20260505151517 | 53 | 235 | 0.9 | 2.6 | 0.00 | 0.00 | 0.00 | 64 | 1013.6 |